Potomac Falls, Virginia
Current Conditions -  °F | °C
As of 2:52 PM on Wednesday 28 Jan 2015 (Local Time) from KIAD Reporting Station
Clear Clear  
Wind Chill: 23°   Ceiling: Unl
Heat Index: 34°   Visibility: 10mi
Dew Point:   Wind: 17mph
Humidity: 32%   Direction: 320°NW
Pressure: 30.23"   Gusts: 24mph
Location:  39.0512°N, 77.4089°W
Report Text: KIAD 281952Z 32015G21KT 10SM CLR 01/M14 A3023 RMK AO2 SLP240 T00111139 $
Loading
Personal Weather Stations






























Interactive Weather Map New forecast layout! Learn more

10-Day Weather Forecast

Advertisements
Track Severe Weather on mobile